createdAt,value
2022-11-08T00:04:57.626Z,7.35
2022-11-08T00:10:18.183Z,6.15
2022-11-08T00:15:19.968Z,10.38
2022-11-08T00:20:21.736Z,4.50
2022-11-08T00:25:23.532Z,9.88
2022-11-08T00:30:25.308Z,5.72
2022-11-08T00:35:27.085Z,3.75
2022-11-08T00:40:28.863Z,5.45
2022-11-08T00:45:30.666Z,7.57
2022-11-08T00:50:32.514Z,6.38
2022-11-08T00:55:34.295Z,3.40
2022-11-08T01:00:36.208Z,3.67
2022-11-08T01:05:38.401Z,8.60
2022-11-08T01:10:45.659Z,7.97
2022-11-08T01:15:48.425Z,4.05
2022-11-08T01:20:50.896Z,5.45
2022-11-08T01:25:52.706Z,6.53
2022-11-08T01:30:54.484Z,2.65
2022-11-08T01:35:56.343Z,9.75
2022-11-08T01:40:58.132Z,4.45
2022-11-08T01:46:18.376Z,7.75
2022-11-08T01:51:26.082Z,5.70
2022-11-08T01:56:28.036Z,6.00
2022-11-08T02:01:30.127Z,11.93
2022-11-08T02:06:35.888Z,5.22
2022-11-08T02:11:39.512Z,7.50
2022-11-08T02:16:41.302Z,8.55
2022-11-08T02:21:50.805Z,7.63
2022-11-08T02:26:55.282Z,5.63
2022-11-08T02:31:58.768Z,8.00
2022-11-08T02:37:03.627Z,7.40
2022-11-08T02:42:05.576Z,5.88
2022-11-08T02:47:07.387Z,9.15
2022-11-08T02:52:09.502Z,4.20
2022-11-08T02:57:11.332Z,4.22
2022-11-08T03:02:13.232Z,3.50
2022-11-08T03:07:15.220Z,5.20
2022-11-08T03:12:17.044Z,2.83
2022-11-08T03:17:18.837Z,5.85
2022-11-08T03:22:20.638Z,9.57
2022-11-08T03:27:23.382Z,6.05
2022-11-08T03:32:25.129Z,6.82
2022-11-08T03:37:26.913Z,4.68
2022-11-08T03:42:28.689Z,5.50
2022-11-08T03:47:30.459Z,4.00
2022-11-08T03:52:32.199Z,3.05
2022-11-08T03:57:34.173Z,2.20
2022-11-08T04:02:35.972Z,3.08
2022-11-08T04:07:38.338Z,1.20
2022-11-08T04:12:59.934Z,4.65
2022-11-08T04:18:21.016Z,5.90
2022-11-08T04:23:23.097Z,4.07
2022-11-08T04:28:26.978Z,5.13
2022-11-08T04:33:28.983Z,3.55
2022-11-08T04:38:31.926Z,4.85
2022-11-08T04:43:33.913Z,7.03
2022-11-08T04:48:36.350Z,3.72
2022-11-08T04:53:38.135Z,5.75
2022-11-08T04:58:45.435Z,7.63
2022-11-08T05:03:49.283Z,4.97
2022-11-08T05:08:51.512Z,2.13
2022-11-08T05:13:53.840Z,8.10
2022-11-08T05:18:56.186Z,9.50
2022-11-08T05:23:59.094Z,11.63
2022-11-08T05:29:00.898Z,28.77
2022-11-08T05:34:02.740Z,29.00
2022-11-08T05:39:04.586Z,6.82
2022-11-08T05:44:06.406Z,16.83
2022-11-08T05:49:08.201Z,11.65
2022-11-08T05:54:10.282Z,13.65
2022-11-08T05:59:12.055Z,5.38
2022-11-08T06:04:13.921Z,4.88
2022-11-08T06:09:15.699Z,4.97
2022-11-08T06:14:17.463Z,3.15
2022-11-08T06:19:19.262Z,3.50
2022-11-08T06:24:21.065Z,3.72
2022-11-08T06:29:22.870Z,2.47
2022-11-08T06:34:25.227Z,3.70
2022-11-08T06:39:27.130Z,5.22
2022-11-08T06:44:28.955Z,3.95
2022-11-08T06:49:30.741Z,2.22
2022-11-08T06:54:32.547Z,2.75
2022-11-08T06:59:34.334Z,12.65
2022-11-08T07:04:36.138Z,3.55
2022-11-08T07:09:37.934Z,6.55
2022-11-08T07:14:39.716Z,5.45
2022-11-08T07:19:41.617Z,3.47
2022-11-08T07:24:43.408Z,4.40
2022-11-08T07:29:45.219Z,3.33
2022-11-08T07:34:47.118Z,3.15
2022-11-08T07:39:48.910Z,8.05
2022-11-08T07:44:50.907Z,5.45
2022-11-08T07:49:52.701Z,4.88
2022-11-08T07:54:54.721Z,6.28
2022-11-08T07:59:56.526Z,5.05
2022-11-08T08:04:58.332Z,5.05
2022-11-08T08:10:00.242Z,1.95
2022-11-08T08:15:02.172Z,2.92
2022-11-08T08:20:04.745Z,4.05
2022-11-08T08:25:07.189Z,5.65
2022-11-08T08:30:09.313Z,7.72
2022-11-08T08:35:11.623Z,3.50
2022-11-08T08:40:13.509Z,5.22
2022-11-08T08:45:15.429Z,3.33
2022-11-08T08:50:17.272Z,6.47
2022-11-08T08:55:19.517Z,5.13
2022-11-08T09:05:47.018Z,7.93
2022-11-08T09:10:57.305Z,9.32
2022-11-08T09:16:01.884Z,4.45
2022-11-08T09:21:04.473Z,9.32
2022-11-08T09:26:06.622Z,17.30
2022-11-08T09:31:10.913Z,6.32
2022-11-08T09:36:14.141Z,6.72
2022-11-08T09:41:41.589Z,7.95
2022-11-08T09:46:53.678Z,6.55
2022-11-08T09:51:55.692Z,7.88
2022-11-08T09:56:58.373Z,2.17
2022-11-08T10:02:00.327Z,1.65
2022-11-08T10:07:08.019Z,3.22
2022-11-08T10:12:28.522Z,4.55
2022-11-08T10:17:42.198Z,1.63
2022-11-08T10:23:05.501Z,6.20
2022-11-08T10:28:08.301Z,3.03
2022-11-08T10:33:18.419Z,3.15
2022-11-08T10:38:24.989Z,5.70
2022-11-08T10:43:49.930Z,3.15
2022-11-08T10:48:51.737Z,2.78
2022-11-08T10:53:53.595Z,2.58
2022-11-08T10:58:55.451Z,1.60
2022-11-08T11:03:57.291Z,5.13
2022-11-08T11:09:03.814Z,3.60
2022-11-08T11:14:22.249Z,2.97
2022-11-08T11:19:26.274Z,5.25
2022-11-08T11:24:28.498Z,2.95
2022-11-08T11:29:32.714Z,6.25
2022-11-08T11:34:49.205Z,3.90
2022-11-08T11:40:12.813Z,3.53
2022-11-08T11:45:17.953Z,1.77
2022-11-08T11:50:28.657Z,1.45
2022-11-08T11:55:49.339Z,2.20
2022-11-08T12:01:14.833Z,5.50
2022-11-08T12:06:21.580Z,2.85
2022-11-08T12:11:36.462Z,3.38
2022-11-08T12:17:07.481Z,2.53
2022-11-08T12:27:31.188Z,2.30
2022-11-08T12:32:45.568Z,2.50
2022-11-08T12:38:05.829Z,9.75
2022-11-08T12:43:23.135Z,5.05
2022-11-08T12:48:24.896Z,2.58
2022-11-08T12:53:51.518Z,2.63
2022-11-08T12:58:55.146Z,6.90
2022-11-08T13:04:21.648Z,2.38
2022-11-08T13:09:37.416Z,2.47
2022-11-08T13:14:41.423Z,1.88
2022-11-08T13:19:49.788Z,2.35
2022-11-08T13:24:51.682Z,2.33
2022-11-08T13:29:56.844Z,2.28
2022-11-08T13:35:25.616Z,3.25
2022-11-08T13:40:55.692Z,1.90
2022-11-08T13:46:31.878Z,2.03
2022-11-08T13:51:36.748Z,1.48
2022-11-08T13:56:45.937Z,2.40
2022-11-08T14:01:47.689Z,4.38
2022-11-08T14:06:55.185Z,2.13
2022-11-08T14:12:12.322Z,3.13
2022-11-08T14:17:26.662Z,3.53
2022-11-08T14:22:30.374Z,2.00
2022-11-08T14:27:36.825Z,1.65
2022-11-08T14:32:40.780Z,3.75
2022-11-08T14:37:44.042Z,4.93
2022-11-08T14:42:46.006Z,4.32
2022-11-08T14:48:00.820Z,5.30
2022-11-08T14:53:45.008Z,5.25
2022-11-08T14:58:48.444Z,5.18
2022-11-08T15:03:55.789Z,2.85
2022-11-08T15:08:58.176Z,6.60
2022-11-08T15:14:17.062Z,4.70
2022-11-08T15:19:30.285Z,6.65
2022-11-08T15:24:39.981Z,5.40
2022-11-08T15:30:07.152Z,5.73
2022-11-08T15:35:23.903Z,14.93
2022-11-08T15:40:32.043Z,5.05
2022-11-08T15:45:35.749Z,9.80
2022-11-08T15:50:37.693Z,8.90
2022-11-08T15:55:49.047Z,9.07
2022-11-08T16:00:51.158Z,7.00
2022-11-08T16:05:53.312Z,4.70
2022-11-08T16:10:59.818Z,5.00
2022-11-08T16:16:04.054Z,7.13
2022-11-08T16:21:06.624Z,13.13
2022-11-08T16:26:15.374Z,6.88
2022-11-08T16:31:20.822Z,10.90
2022-11-08T16:36:25.716Z,7.30
2022-11-08T16:41:27.755Z,8.70
2022-11-08T16:46:29.673Z,18.33
2022-11-08T16:51:31.987Z,11.68
2022-11-08T16:56:33.898Z,10.23
2022-11-08T17:01:36.176Z,9.45
2022-11-08T17:06:38.191Z,13.57
2022-11-08T17:11:40.911Z,11.80
2022-11-08T17:16:42.816Z,7.53
2022-11-08T17:21:45.892Z,9.75
2022-11-08T17:26:48.198Z,15.50
2022-11-08T17:31:50.478Z,46.90
2022-11-08T17:36:53.076Z,54.03
2022-11-08T17:41:54.973Z,25.23
2022-11-08T17:46:56.813Z,11.85
2022-11-08T17:51:58.713Z,7.40
2022-11-08T17:57:00.676Z,5.95
2022-11-08T18:02:03.380Z,20.00
2022-11-08T18:07:05.827Z,5.22
2022-11-08T18:12:07.850Z,3.90
2022-11-08T18:17:09.853Z,3.70
2022-11-08T18:22:11.703Z,3.88
2022-11-08T18:27:13.645Z,3.45
2022-11-08T18:32:15.667Z,4.63
2022-11-08T18:37:17.584Z,5.15
2022-11-08T18:42:19.425Z,5.53
2022-11-08T18:47:21.310Z,14.65
2022-11-08T18:52:23.160Z,6.95
2022-11-08T18:57:25.114Z,5.47
2022-11-08T19:02:27.020Z,21.25
2022-11-08T19:07:29.792Z,6.60
2022-11-08T19:12:31.777Z,3.05
2022-11-08T19:17:35.401Z,4.07
2022-11-08T19:22:37.313Z,4.30
2022-11-08T19:27:39.241Z,15.65
2022-11-08T19:32:41.185Z,6.25
2022-11-08T19:37:43.172Z,5.05
2022-11-08T19:42:45.077Z,7.18
2022-11-08T19:47:50.563Z,4.38
2022-11-08T19:52:52.581Z,2.65
2022-11-08T19:57:54.564Z,3.30
2022-11-08T20:02:56.485Z,5.35
2022-11-08T20:07:58.347Z,2.67
2022-11-08T20:13:00.253Z,3.10
2022-11-08T20:18:02.023Z,4.40
2022-11-08T20:23:04.641Z,3.53
2022-11-08T20:28:07.079Z,2.38
2022-11-08T20:33:08.906Z,5.38
2022-11-08T20:38:10.704Z,2.75
2022-11-08T20:43:12.541Z,3.60
2022-11-08T20:48:14.495Z,3.05
2022-11-08T20:53:16.316Z,2.33
2022-11-08T20:58:18.402Z,7.15
2022-11-08T21:03:21.920Z,5.13
2022-11-08T21:13:47.244Z,2.65
2022-11-08T21:18:49.159Z,3.88
2022-11-08T21:23:51.605Z,9.50
2022-11-08T21:28:54.449Z,6.82
2022-11-08T21:33:56.317Z,6.80
2022-11-08T21:38:58.123Z,10.07
2022-11-08T21:44:00.118Z,4.72
2022-11-08T21:49:02.406Z,9.35
2022-11-08T21:54:05.240Z,6.32
2022-11-08T21:59:07.090Z,4.50
2022-11-08T22:04:08.879Z,5.22
2022-11-08T22:09:10.689Z,6.20
2022-11-08T22:14:12.673Z,7.47
2022-11-08T22:19:15.554Z,5.80
2022-11-08T22:24:22.783Z,7.30
2022-11-08T22:29:25.139Z,5.07
2022-11-08T22:34:27.426Z,3.65
2022-11-08T22:39:29.494Z,3.88
2022-11-08T22:44:31.307Z,4.65
2022-11-08T22:49:33.120Z,4.95
2022-11-08T22:54:35.187Z,5.00
2022-11-08T22:59:36.990Z,2.72
2022-11-08T23:04:38.820Z,3.83
2022-11-08T23:09:40.669Z,10.55
2022-11-08T23:15:00.934Z,7.90
2022-11-08T23:20:21.515Z,3.40
2022-11-08T23:25:23.304Z,6.05
2022-11-08T23:30:43.974Z,4.35
2022-11-08T23:36:05.736Z,5.07
2022-11-08T23:41:26.534Z,4.25
2022-11-08T23:51:30.420Z,5.25
2022-11-08T23:56:32.285Z,5.75
